sensor_id;sensor_type;location;lat;lon;timestamp;pressure;altitude;pressure_sealevel;temperature;humidity
9141;BME280;46330;50.822;7.126;2023-04-02T00:00:17;99981.69;;;8.59;100.00
9141;BME280;46330;50.822;7.126;2023-04-02T00:02:58;99985.16;;;8.60;100.00
9141;BME280;46330;50.822;7.126;2023-04-02T00:05:42;99986.84;;;8.62;100.00
9141;BME280;46330;50.822;7.126;2023-04-02T00:08:24;99993.88;;;8.59;100.00
9141;BME280;46330;50.822;7.126;2023-04-02T00:10:55;99992.97;;;8.61;100.00
9141;BME280;46330;50.822;7.126;2023-04-02T00:13:31;99998.09;;;8.64;100.00
9141;BME280;46330;50.822;7.126;2023-04-02T00:16:00;100005.94;;;8.64;100.00
9141;BME280;46330;50.822;7.126;2023-04-02T00:18:31;100014.53;;;8.68;100.00
9141;BME280;46330;50.822;7.126;2023-04-02T00:21:07;100010.28;;;8.62;100.00
9141;BME280;46330;50.822;7.126;2023-04-02T00:23:39;100014.53;;;8.68;100.00
9141;BME280;46330;50.822;7.126;2023-04-02T00:26:22;100025.00;;;8.67;100.00
9141;BME280;46330;50.822;7.126;2023-04-02T00:28:51;100028.47;;;8.65;100.00
9141;BME280;46330;50.822;7.126;2023-04-02T00:31:19;100031.16;;;8.62;100.00
9141;BME280;46330;50.822;7.126;2023-04-02T00:33:48;100034.63;;;8.63;100.00
9141;BME280;46330;50.822;7.126;2023-04-02T00:36:17;100044.13;;;8.65;100.00
9141;BME280;46330;50.822;7.126;2023-04-02T00:38:47;100051.84;;;8.70;100.00
9141;BME280;46330;50.822;7.126;2023-04-02T00:41:21;100045.81;;;8.68;100.00
9141;BME280;46330;50.822;7.126;2023-04-02T00:43:52;100051.13;;;8.63;100.00
9141;BME280;46330;50.822;7.126;2023-04-02T00:46:28;100052.84;;;8.64;100.00
9141;BME280;46330;50.822;7.126;2023-04-02T00:49:02;100058.81;;;8.70;100.00
9141;BME280;46330;50.822;7.126;2023-04-02T00:51:35;100056.22;;;8.70;100.00
9141;BME280;46330;50.822;7.126;2023-04-02T00:54:06;100052.91;;;8.61;100.00
9141;BME280;46330;50.822;7.126;2023-04-02T00:56:44;100060.72;;;8.61;100.00
9141;BME280;46330;50.822;7.126;2023-04-02T00:59:19;100060.72;;;8.61;100.00
9141;BME280;46330;50.822;7.126;2023-04-02T01:01:51;100070.25;;;8.62;100.00
9141;BME280;46330;50.822;7.126;2023-04-02T01:04:27;100075.50;;;8.61;100.00
9141;BME280;46330;50.822;7.126;2023-04-02T01:06:57;100075.47;;;8.62;100.00
9141;BME280;46330;50.822;7.126;2023-04-02T01:09:37;100074.66;;;8.60;100.00
9141;BME280;46330;50.822;7.126;2023-04-02T01:12:26;100081.59;;;8.60;100.00
9141;BME280;46330;50.822;7.126;2023-04-02T01:15:01;100082.41;;;8.63;100.00
9141;BME280;46330;50.822;7.126;2023-04-02T01:20:47;100086.00;;;8.58;100.00
9141;BME280;46330;50.822;7.126;2023-04-02T01:23:23;100096.38;;;8.59;100.00
9141;BME280;46330;50.822;7.126;2023-04-02T01:26:00;100093.72;;;8.62;100.00
9141;BME280;46330;50.822;7.126;2023-04-02T01:28:45;100112.94;;;8.58;100.00
9141;BME280;46330;50.822;7.126;2023-04-02T01:31:16;100109.53;;;8.55;100.00
9141;BME280;46330;50.822;7.126;2023-04-02T01:33:44;100108.72;;;8.51;100.00
9141;BME280;46330;50.822;7.126;2023-04-02T01:36:17;100119.97;;;8.53;100.00
9141;BME280;46330;50.822;7.126;2023-04-02T01:38:55;100120.81;;;8.55;100.00
9141;BME280;46330;50.822;7.126;2023-04-02T01:41:33;100121.63;;;8.59;100.00
9141;BME280;46330;50.822;7.126;2023-04-02T01:44:06;100132.06;;;8.57;100.00
9141;BME280;46330;50.822;7.126;2023-04-02T01:46:37;100134.59;;;8.60;100.00
9141;BME280;46330;50.822;7.126;2023-04-02T01:49:11;100139.88;;;8.59;100.00
9141;BME280;46330;50.822;7.126;2023-04-02T01:51:42;100137.22;;;8.60;100.00
9141;BME280;46330;50.822;7.126;2023-04-02T01:54:12;100138.06;;;8.61;100.00
9141;BME280;46330;50.822;7.126;2023-04-02T01:56:43;100150.28;;;8.59;100.00
9141;BME280;46330;50.822;7.126;2023-04-02T01:59:15;100154.63;;;8.58;100.00
9141;BME280;46330;50.822;7.126;2023-04-02T02:01:47;100152.03;;;8.58;100.00
9141;BME280;46330;50.822;7.126;2023-04-02T02:04:18;100166.81;;;8.58;100.00
9141;BME280;46330;50.822;7.126;2023-04-02T02:06:47;100165.06;;;8.57;100.00
9141;BME280;46330;50.822;7.126;2023-04-02T02:09:19;100168.47;;;8.62;100.00
9141;BME280;46330;50.822;7.126;2023-04-02T02:11:49;100171.09;;;8.62;100.00
9141;BME280;46330;50.822;7.126;2023-04-02T02:14:21;100178.91;;;8.62;100.00
9141;BME280;46330;50.822;7.126;2023-04-02T02:16:52;100181.44;;;8.65;100.00
9141;BME280;46330;50.822;7.126;2023-04-02T02:19:26;100185.75;;;8.68;100.00
9141;BME280;46330;50.822;7.126;2023-04-02T02:21:56;100193.56;;;8.66;100.00
9141;BME280;46330;50.822;7.126;2023-04-02T02:24:32;100202.31;;;8.63;100.00
9141;BME280;46330;50.822;7.126;2023-04-02T02:27:12;100204.22;;;8.55;100.00
9141;BME280;46330;50.822;7.126;2023-04-02T02:29:48;100215.56;;;8.51;100.00
9141;BME280;46330;50.822;7.126;2023-04-02T02:32:19;100215.66;;;8.47;100.00
9141;BME280;46330;50.822;7.126;2023-04-02T02:34:55;100221.75;;;8.46;100.00
9141;BME280;46330;50.822;7.126;2023-04-02T02:37:27;100230.44;;;8.46;100.00
9141;BME280;46330;50.822;7.126;2023-04-02T02:39:57;100228.81;;;8.39;100.00
9141;BME280;46330;50.822;7.126;2023-04-02T02:42:31;100238.38;;;8.39;100.00
9141;BME280;46330;50.822;7.126;2023-04-02T02:45:04;100241.81;;;8.42;100.00
9141;BME280;46330;50.822;7.126;2023-04-02T02:47:35;100247.25;;;8.27;100.00
9141;BME280;46330;50.822;7.126;2023-04-02T02:50:12;100256.94;;;8.18;100.00
9141;BME280;46330;50.822;7.126;2023-04-02T02:52:48;100263.88;;;8.19;100.00
9141;BME280;46330;50.822;7.126;2023-04-02T02:55:19;100269.25;;;8.06;100.00
9141;BME280;46330;50.822;7.126;2023-04-02T02:58:15;100258.88;;;8.03;100.00
9141;BME280;46330;50.822;7.126;2023-04-02T03:00:57;100283.28;;;7.98;100.00
9141;BME280;46330;50.822;7.126;2023-04-02T03:03:29;100276.34;;;7.98;100.00
9141;BME280;46330;50.822;7.126;2023-04-02T03:06:04;100282.50;;;7.93;100.00
9141;BME280;46330;50.822;7.126;2023-04-02T03:08:40;100286.84;;;7.94;100.00
9141;BME280;46330;50.822;7.126;2023-04-02T03:11:18;100294.66;;;7.91;100.00
9141;BME280;46330;50.822;7.126;2023-04-02T03:13:53;100291.09;;;7.98;100.00
9141;BME280;46330;50.822;7.126;2023-04-02T03:16:27;100300.81;;;7.87;100.00
9141;BME280;46330;50.822;7.126;2023-04-02T03:18:59;100294.75;;;7.85;100.00
9141;BME280;46330;50.822;7.126;2023-04-02T03:21:35;100308.66;;;7.84;100.00
9141;BME280;46330;50.822;7.126;2023-04-02T03:24:09;100319.88;;;7.90;100.00
9141;BME280;46330;50.822;7.126;2023-04-02T03:26:43;100319.94;;;7.84;100.00
9141;BME280;46330;50.822;7.126;2023-04-02T03:29:16;100319.13;;;7.79;100.00
9141;BME280;46330;50.822;7.126;2023-04-02T03:31:49;100324.25;;;7.87;100.00
9141;BME280;46330;50.822;7.126;2023-04-02T03:34:23;100327.81;;;7.80;100.00
9141;BME280;46330;50.822;7.126;2023-04-02T03:36:56;100332.06;;;7.85;100.00
9141;BME280;46330;50.822;7.126;2023-04-02T03:39:32;100336.44;;;7.82;100.00
9141;BME280;46330;50.822;7.126;2023-04-02T03:42:06;100335.66;;;7.78;100.00
9141;BME280;46330;50.822;7.126;2023-04-02T03:44:42;100345.22;;;7.75;100.00
9141;BME280;46330;50.822;7.126;2023-04-02T03:47:16;100340.94;;;7.71;100.00
9141;BME280;46330;50.822;7.126;2023-04-02T03:49:49;100351.34;;;7.69;100.00
9141;BME280;46330;50.822;7.126;2023-04-02T03:52:24;100355.72;;;7.67;100.00
9141;BME280;46330;50.822;7.126;2023-04-02T03:54:55;100363.56;;;7.66;100.00
9141;BME280;46330;50.822;7.126;2023-04-02T03:57:28;100369.63;;;7.66;100.00
9141;BME280;46330;50.822;7.126;2023-04-02T04:00:03;100372.25;;;7.63;100.00
9141;BME280;46330;50.822;7.126;2023-04-02T04:02:43;100374.84;;;7.65;100.00
9141;BME280;46330;50.822;7.126;2023-04-02T04:05:25;100387.03;;;7.63;100.00
9141;BME280;46330;50.822;7.126;2023-04-02T04:08:01;100394.84;;;7.63;100.00
9141;BME280;46330;50.822;7.126;2023-04-02T04:10:30;100398.38;;;7.55;100.00
9141;BME280;46330;50.822;7.126;2023-04-02T04:13:03;100400.16;;;7.52;100.00
9141;BME280;46330;50.822;7.126;2023-04-02T04:15:34;100401.91;;;7.50;100.00
9141;BME280;46330;50.822;7.126;2023-04-02T04:18:10;100420.13;;;7.48;100.00
9141;BME280;46330;50.822;7.126;2023-04-02T04:20:49;100421.94;;;7.43;100.00
9141;BME280;46330;50.822;7.126;2023-04-02T04:23:28;100430.59;;;7.44;100.00
9141;BME280;46330;50.822;7.126;2023-04-02T04:26:00;100435.84;;;7.39;100.00
9141;BME280;46330;50.822;7.126;2023-04-02T04:28:41;100435.88;;;7.36;100.00
9141;BME280;46330;50.822;7.126;2023-04-02T04:31:18;100435.91;;;7.32;100.00
9141;BME280;46330;50.822;7.126;2023-04-02T04:33:56;100452.44;;;7.28;100.00
9141;BME280;46330;50.822;7.126;2023-04-02T04:36:38;100450.69;;;7.28;100.00
9141;BME280;46330;50.822;7.126;2023-04-02T04:39:25;100454.22;;;7.20;100.00
9141;BME280;46330;50.822;7.126;2023-04-02T04:41:59;100467.19;;;7.27;100.00
9141;BME280;46330;50.822;7.126;2023-04-02T04:44:39;100484.53;;;7.25;100.00
9141;BME280;46330;50.822;7.126;2023-04-02T04:47:15;100485.47;;;7.17;100.00
9141;BME280;46330;50.822;7.126;2023-04-02T04:49:48;100488.13;;;7.12;100.00
9141;BME280;46330;50.822;7.126;2023-04-02T04:52:21;100491.56;;;7.11;100.00
9141;BME280;46330;50.822;7.126;2023-04-02T04:54:51;100493.28;;;7.15;100.00
9141;BME280;46330;50.822;7.126;2023-04-02T04:57:29;100510.63;;;7.15;100.00
9141;BME280;46330;50.822;7.126;2023-04-02T05:00:04;100508.91;;;7.12;100.00
9141;BME280;46330;50.822;7.126;2023-04-02T05:02:40;100521.91;;;7.12;100.00
9141;BME280;46330;50.822;7.126;2023-04-02T05:05:19;100529.81;;;7.00;100.00
9141;BME280;46330;50.822;7.126;2023-04-02T05:07:52;100532.38;;;7.01;100.00
9141;BME280;46330;50.822;7.126;2023-04-02T05:10:32;100537.59;;;7.03;100.00
9141;BME280;46330;50.822;7.126;2023-04-02T05:13:04;100544.50;;;7.01;100.00
9141;BME280;46330;50.822;7.126;2023-04-02T05:15:37;100555.78;;;7.01;100.00
9141;BME280;46330;50.822;7.126;2023-04-02T05:18:19;100553.25;;;6.94;100.00
9141;BME280;46330;50.822;7.126;2023-04-02T05:20:55;100558.44;;;6.92;100.00
9141;BME280;46330;50.822;7.126;2023-04-02T05:23:28;100560.22;;;6.86;100.00
9141;BME280;46330;50.822;7.126;2023-04-02T05:26:02;100567.16;;;6.87;100.00
9141;BME280;46330;50.822;7.126;2023-04-02T05:28:37;100577.56;;;6.84;100.00
9141;BME280;46330;50.822;7.126;2023-04-02T05:31:12;100584.47;;;6.88;100.00
9141;BME280;46330;50.822;7.126;2023-04-02T05:33:44;100587.09;;;6.88;100.00
9141;BME280;46330;50.822;7.126;2023-04-02T05:36:20;100596.66;;;6.78;100.00
9141;BME280;46330;50.822;7.126;2023-04-02T05:38:54;100602.69;;;6.82;100.00
9141;BME280;46330;50.822;7.126;2023-04-02T05:41:32;100612.19;;;6.89;100.00
9141;BME280;46330;50.822;7.126;2023-04-02T05:44:06;100608.75;;;6.79;100.00
9141;BME280;46330;50.822;7.126;2023-04-02T05:46:44;100624.44;;;6.69;100.00
9141;BME280;46330;50.822;7.126;2023-04-02T05:49:17;100624.41;;;6.72;100.00
9141;BME280;46330;50.822;7.126;2023-04-02T05:51:54;100632.16;;;6.76;100.00
9141;BME280;46330;50.822;7.126;2023-04-02T05:54:29;100642.59;;;6.75;100.00
9141;BME280;46330;50.822;7.126;2023-04-02T05:57:01;100644.31;;;6.73;100.00
9141;BME280;46330;50.822;7.126;2023-04-02T05:59:36;100648.63;;;6.77;100.00
9141;BME280;46330;50.822;7.126;2023-04-02T06:02:10;100655.56;;;6.78;100.00
9141;BME280;46330;50.822;7.126;2023-04-02T06:04:49;100664.25;;;6.78;100.00
9141;BME280;46330;50.822;7.126;2023-04-02T06:07:28;100666.88;;;6.66;100.00
9141;BME280;46330;50.822;7.126;2023-04-02T06:10:02;100680.72;;;6.67;100.00
9141;BME280;46330;50.822;7.126;2023-04-02T06:12:39;100679.88;;;6.66;100.00
9141;BME280;46330;50.822;7.126;2023-04-02T06:15:12;100691.09;;;6.70;100.00
9141;BME280;46330;50.822;7.126;2023-04-02T06:17:45;100697.19;;;6.67;100.00
9141;BME280;46330;50.822;7.126;2023-04-02T06:20:15;100701.53;;;6.62;100.00
9141;BME280;46330;50.822;7.126;2023-04-02T06:22:47;100710.19;;;6.69;100.00
9141;BME280;46330;50.822;7.126;2023-04-02T06:25:20;100714.50;;;6.67;100.00
9141;BME280;46330;50.822;7.126;2023-04-02T06:27:52;100720.59;;;6.58;100.00
9141;BME280;46330;50.822;7.126;2023-04-02T06:30:25;100723.19;;;6.58;100.00
9141;BME280;46330;50.822;7.126;2023-04-02T06:32:55;100734.47;;;6.53;100.00
9141;BME280;46330;50.822;7.126;2023-04-02T06:35:24;100737.91;;;6.61;100.00
9141;BME280;46330;50.822;7.126;2023-04-02T06:38:03;100742.25;;;6.51;100.00
9141;BME280;46330;50.822;7.126;2023-04-02T06:40:39;100747.47;;;6.56;100.00
9141;BME280;46330;50.822;7.126;2023-04-02T06:43:19;100748.34;;;6.41;100.00
9141;BME280;46330;50.822;7.126;2023-04-02T06:46:17;100756.13;;;6.48;100.00
9141;BME280;46330;50.822;7.126;2023-04-02T06:49:04;100765.63;;;6.45;100.00
9141;BME280;46330;50.822;7.126;2023-04-02T06:51:37;100771.72;;;6.35;100.00
9141;BME280;46330;50.822;7.126;2023-04-02T06:54:12;100782.97;;;6.40;100.00
9141;BME280;46330;50.822;7.126;2023-04-02T06:56:44;100784.72;;;6.41;100.00
9141;BME280;46330;50.822;7.126;2023-04-02T06:59:19;100791.63;;;6.39;100.00
9141;BME280;46330;50.822;7.126;2023-04-02T07:01:50;100797.69;;;6.47;100.00
9141;BME280;46330;50.822;7.126;2023-04-02T07:04:20;100799.44;;;6.46;100.00
9141;BME280;46330;50.822;7.126;2023-04-02T07:06:51;100804.63;;;6.46;100.00
9141;BME280;46330;50.822;7.126;2023-04-02T07:09:23;100810.66;;;6.52;100.00
9141;BME280;46330;50.822;7.126;2023-04-02T07:11:54;100829.72;;;6.55;100.00
9141;BME280;46330;50.822;7.126;2023-04-02T07:14:22;100828.88;;;6.56;100.00
9141;BME280;46330;50.822;7.126;2023-04-02T07:16:50;100828.00;;;6.54;100.00
9141;BME280;46330;50.822;7.126;2023-04-02T07:19:19;100844.47;;;6.65;100.00
9141;BME280;46330;50.822;7.126;2023-04-02T07:21:52;100847.91;;;6.67;100.00
9141;BME280;46330;50.822;7.126;2023-04-02T07:24:23;100842.75;;;6.72;100.00
9141;BME280;46330;50.822;7.126;2023-04-02T07:26:51;100860.94;;;6.54;100.00
9141;BME280;46330;50.822;7.126;2023-04-02T07:29:19;100865.25;;;6.67;100.00
9141;BME280;46330;50.822;7.126;2023-04-02T07:31:47;100868.72;;;6.67;100.00
9141;BME280;46330;50.822;7.126;2023-04-02T07:34:15;100873.06;;;6.68;100.00
9141;BME280;46330;50.822;7.126;2023-04-02T07:36:43;100880.84;;;6.67;100.00
9141;BME280;46330;50.822;7.126;2023-04-02T07:39:11;100884.31;;;6.76;100.00
9141;BME280;46330;50.822;7.126;2023-04-02T07:41:54;100886.91;;;6.70;100.00
9141;BME280;46330;50.822;7.126;2023-04-02T07:44:22;100896.44;;;6.82;100.00
9141;BME280;46330;50.822;7.126;2023-04-02T07:46:50;100894.69;;;6.91;100.00
9141;BME280;46330;50.822;7.126;2023-04-02T07:49:18;100908.59;;;6.81;100.00
9141;BME280;46330;50.822;7.126;2023-04-02T07:51:46;100918.09;;;6.76;100.00
9141;BME280;46330;50.822;7.126;2023-04-02T07:54:14;100917.25;;;6.85;100.00
9141;BME280;46330;50.822;7.126;2023-04-02T07:56:42;100925.91;;;6.91;100.00
9141;BME280;46330;50.822;7.126;2023-04-02T07:59:11;100931.13;;;6.81;100.00
9141;BME280;46330;50.822;7.126;2023-04-02T08:01:38;100932.84;;;6.71;100.00
9141;BME280;46330;50.822;7.126;2023-04-02T08:04:16;100941.50;;;6.78;100.00
9141;BME280;46330;50.822;7.126;2023-04-02T08:06:44;100946.66;;;6.58;100.00
9141;BME280;46330;50.822;7.126;2023-04-02T08:09:12;100953.63;;;6.71;100.00
9141;BME280;46330;50.822;7.126;2023-04-02T08:11:40;100949.28;;;6.85;100.00
9141;BME280;46330;50.822;7.126;2023-04-02T08:14:08;100958.84;;;6.92;100.00
9141;BME280;46330;50.822;7.126;2023-04-02T08:16:45;100964.03;;;6.98;100.00
9141;BME280;46330;50.822;7.126;2023-04-02T08:19:14;100966.63;;;6.86;99.94
9141;BME280;46330;50.822;7.126;2023-04-02T08:21:43;100976.19;;;6.84;99.94
9141;BME280;46330;50.822;7.126;2023-04-02T08:24:11;100981.34;;;6.77;100.00
9141;BME280;46330;50.822;7.126;2023-04-02T08:26:38;100999.56;;;6.92;100.00
9141;BME280;46330;50.822;7.126;2023-04-02T08:29:08;101004.78;;;6.87;100.00
9141;BME280;46330;50.822;7.126;2023-04-02T08:31:35;101001.28;;;6.70;100.00
9141;BME280;46330;50.822;7.126;2023-04-02T08:34:05;101010.81;;;6.76;100.00
9141;BME280;46330;50.822;7.126;2023-04-02T08:36:35;101022.97;;;6.81;99.97
9141;BME280;46330;50.822;7.126;2023-04-02T08:39:06;101014.28;;;6.78;99.86
9141;BME280;46330;50.822;7.126;2023-04-02T08:41:40;101015.16;;;6.69;99.75
9141;BME280;46330;50.822;7.126;2023-04-02T08:44:20;101034.19;;;6.76;99.82
9141;BME280;46330;50.822;7.126;2023-04-02T08:46:54;101037.66;;;6.67;99.43
9141;BME280;46330;50.822;7.126;2023-04-02T08:49:28;101044.59;;;6.74;99.85
9141;BME280;46330;50.822;7.126;2023-04-02T08:51:58;101050.63;;;6.58;99.40
9141;BME280;46330;50.822;7.126;2023-04-02T08:54:28;101055.88;;;6.79;98.61
9141;BME280;46330;50.822;7.126;2023-04-02T08:57:00;101060.25;;;6.92;98.15
9141;BME280;46330;50.822;7.126;2023-04-02T08:59:33;101063.75;;;7.02;98.89
9141;BME280;46330;50.822;7.126;2023-04-02T09:02:19;101060.28;;;7.06;97.38
9141;BME280;46330;50.822;7.126;2023-04-02T09:04:53;101079.31;;;6.87;96.33
9141;BME280;46330;50.822;7.126;2023-04-02T09:07:21;101082.81;;;6.96;96.47
9141;BME280;46330;50.822;7.126;2023-04-02T09:09:49;101082.81;;;7.06;97.24
9141;BME280;46330;50.822;7.126;2023-04-02T09:12:18;101094.97;;;7.08;95.86
9141;BME280;46330;50.822;7.126;2023-04-02T09:14:56;101094.06;;;6.92;95.43
9141;BME280;46330;50.822;7.126;2023-04-02T09:17:27;101096.69;;;6.97;95.72
9141;BME280;46330;50.822;7.126;2023-04-02T09:20:13;101100.19;;;7.10;96.32
9141;BME280;46330;50.822;7.126;2023-04-02T09:22:44;101106.16;;;6.89;96.59
9141;BME280;46330;50.822;7.126;2023-04-02T09:25:16;101111.34;;;6.80;96.63
9141;BME280;46330;50.822;7.126;2023-04-02T09:27:46;101107.91;;;6.87;96.66
9141;BME280;46330;50.822;7.126;2023-04-02T09:30:22;101120.97;;;7.03;96.21
9141;BME280;46330;50.822;7.126;2023-04-02T09:32:56;101126.09;;;6.91;96.28
9141;BME280;46330;50.822;7.126;2023-04-02T09:35:29;101126.91;;;6.69;96.08
9141;BME280;46330;50.822;7.126;2023-04-02T09:38:16;101131.31;;;6.84;97.50
9141;BME280;46330;50.822;7.126;2023-04-02T09:40:47;101144.31;;;6.90;96.21
9141;BME280;46330;50.822;7.126;2023-04-02T09:43:18;101145.22;;;7.07;96.35
9141;BME280;46330;50.822;7.126;2023-04-02T09:45:55;101154.84;;;7.31;95.47
9141;BME280;46330;50.822;7.126;2023-04-02T09:48:26;101155.66;;;7.13;94.72
9141;BME280;46330;50.822;7.126;2023-04-02T09:51:11;101171.28;;;7.18;93.88
9141;BME280;46330;50.822;7.126;2023-04-02T09:53:41;101179.91;;;7.01;93.58
9141;BME280;46330;50.822;7.126;2023-04-02T09:56:13;101174.75;;;7.15;94.42
9141;BME280;46330;50.822;7.126;2023-04-02T09:58:42;101186.03;;;7.20;92.84
9141;BME280;46330;50.822;7.126;2023-04-02T10:01:25;101179.13;;;7.33;92.19
9141;BME280;46330;50.822;7.126;2023-04-02T10:03:54;101185.16;;;7.17;93.21
9141;BME280;46330;50.822;7.126;2023-04-02T10:06:27;101193.84;;;7.19;92.69
9141;BME280;46330;50.822;7.126;2023-04-02T10:08:55;101200.81;;;7.33;92.90
9141;BME280;46330;50.822;7.126;2023-04-02T10:11:26;101205.16;;;7.31;93.42
9141;BME280;46330;50.822;7.126;2023-04-02T10:14:16;101210.28;;;7.16;92.11
9141;BME280;46330;50.822;7.126;2023-04-02T10:16:47;101218.09;;;7.18;91.77
9141;BME280;46330;50.822;7.126;2023-04-02T10:19:24;101225.78;;;6.87;92.56
9141;BME280;46330;50.822;7.126;2023-04-02T10:21:55;101233.50;;;6.77;93.38
9141;BME280;46330;50.822;7.126;2023-04-02T10:24:26;101231.78;;;6.79;93.20
9141;BME280;46330;50.822;7.126;2023-04-02T10:27:00;101242.09;;;6.62;91.98
9141;BME280;46330;50.822;7.126;2023-04-02T10:29:50;101247.38;;;6.79;92.75
9141;BME280;46330;50.822;7.126;2023-04-02T10:32:24;101250.09;;;6.97;92.96
9141;BME280;46330;50.822;7.126;2023-04-02T10:35:01;101254.41;;;6.95;92.14
9141;BME280;46330;50.822;7.126;2023-04-02T10:37:55;101258.84;;;7.11;91.44
9141;BME280;46330;50.822;7.126;2023-04-02T10:40:28;101257.06;;;7.07;91.41
9141;BME280;46330;50.822;7.126;2023-04-02T10:43:29;101260.59;;;7.15;91.14
9141;BME280;46330;50.822;7.126;2023-04-02T10:46:05;101271.06;;;7.38;90.27
9141;BME280;46330;50.822;7.126;2023-04-02T10:48:38;101270.25;;;7.46;89.69
9141;BME280;46330;50.822;7.126;2023-04-02T10:51:27;101281.44;;;7.26;89.77
9141;BME280;46330;50.822;7.126;2023-04-02T10:54:02;101280.63;;;7.39;89.36
9141;BME280;46330;50.822;7.126;2023-04-02T10:56:37;101278.88;;;7.38;89.05
9141;BME280;46330;50.822;7.126;2023-04-02T10:59:18;101292.69;;;7.19;89.02
9141;BME280;46330;50.822;7.126;2023-04-02T11:01:49;101287.59;;;7.40;88.48
9141;BME280;46330;50.822;7.126;2023-04-02T11:04:21;101296.16;;;7.19;88.84
9141;BME280;46330;50.822;7.126;2023-04-02T11:06:53;101300.63;;;7.47;88.93
9141;BME280;46330;50.822;7.126;2023-04-02T11:09:40;101308.44;;;7.52;88.58
9141;BME280;46330;50.822;7.126;2023-04-02T11:12:18;101311.09;;;7.63;88.04
9141;BME280;46330;50.822;7.126;2023-04-02T11:14:49;101329.34;;;7.63;87.90
9141;BME280;46330;50.822;7.126;2023-04-02T11:17:18;101324.16;;;7.75;87.47
9141;BME280;46330;50.822;7.126;2023-04-02T11:19:47;101328.50;;;7.79;86.85
9141;BME280;46330;50.822;7.126;2023-04-02T11:22:15;101330.28;;;7.98;86.91
9141;BME280;46330;50.822;7.126;2023-04-02T11:24:47;101335.53;;;8.15;85.95
9141;BME280;46330;50.822;7.126;2023-04-02T11:27:24;101332.13;;;8.28;85.59
9141;BME280;46330;50.822;7.126;2023-04-02T11:30:02;101343.41;;;8.28;84.75
9141;BME280;46330;50.822;7.126;2023-04-02T11:32:36;101344.19;;;8.04;84.54
9141;BME280;46330;50.822;7.126;2023-04-02T11:35:24;101347.66;;;7.90;85.23
9141;BME280;46330;50.822;7.126;2023-04-02T11:37:56;101344.19;;;7.97;86.50
9141;BME280;46330;50.822;7.126;2023-04-02T11:40:47;101357.16;;;7.82;86.08
9141;BME280;46330;50.822;7.126;2023-04-02T11:43:58;101366.63;;;7.58;86.29
9141;BME280;46330;50.822;7.126;2023-04-02T11:46:44;101362.22;;;7.44;86.96
9141;BME280;46330;50.822;7.126;2023-04-02T11:49:36;101381.38;;;7.61;87.46
9141;BME280;46330;50.822;7.126;2023-04-02T11:52:21;101377.91;;;7.67;85.89
9141;BME280;46330;50.822;7.126;2023-04-02T11:55:02;101376.97;;;7.51;86.40
9141;BME280;46330;50.822;7.126;2023-04-02T11:57:42;101380.47;;;7.51;85.91
9141;BME280;46330;50.822;7.126;2023-04-02T12:00:22;101375.34;;;7.76;86.19
9141;BME280;46330;50.822;7.126;2023-04-02T12:03:14;101375.41;;;7.89;84.08
9141;BME280;46330;50.822;7.126;2023-04-02T12:05:50;101382.31;;;7.80;84.30
9141;BME280;46330;50.822;7.126;2023-04-02T12:08:32;101384.09;;;7.88;84.37
9141;BME280;46330;50.822;7.126;2023-04-02T12:11:29;101391.94;;;7.97;84.07
9141;BME280;46330;50.822;7.126;2023-04-02T12:14:02;101394.53;;;7.94;84.24
9141;BME280;46330;50.822;7.126;2023-04-02T12:16:34;101392.88;;;8.15;83.12
9141;BME280;46330;50.822;7.126;2023-04-02T12:19:07;101399.84;;;8.26;84.71
9141;BME280;46330;50.822;7.126;2023-04-02T12:21:36;101409.41;;;8.24;82.67
9141;BME280;46330;50.822;7.126;2023-04-02T12:24:05;101413.72;;;8.24;82.81
9141;BME280;46330;50.822;7.126;2023-04-02T12:26:35;101416.31;;;8.16;82.57
9141;BME280;46330;50.822;7.126;2023-04-02T12:29:15;101411.94;;;8.10;81.89
9141;BME280;46330;50.822;7.126;2023-04-02T12:31:45;101429.31;;;8.10;82.28
9141;BME280;46330;50.822;7.126;2023-04-02T12:34:15;101430.19;;;8.06;81.82
9141;BME280;46330;50.822;7.126;2023-04-02T12:36:52;101438.03;;;8.09;81.48
9141;BME280;46330;50.822;7.126;2023-04-02T12:39:21;101438.81;;;7.97;81.94
9141;BME280;46330;50.822;7.126;2023-04-02T12:41:52;101436.19;;;7.94;81.96
9141;BME280;46330;50.822;7.126;2023-04-02T12:44:23;101438.81;;;7.96;81.74
9141;BME280;46330;50.822;7.126;2023-04-02T12:46:52;101447.59;;;8.18;81.99
9141;BME280;46330;50.822;7.126;2023-04-02T12:49:26;101441.63;;;8.40;80.92
9141;BME280;46330;50.822;7.126;2023-04-02T12:51:57;101439.03;;;8.46;79.45
9141;BME280;46330;50.822;7.126;2023-04-02T12:54:29;101438.13;;;8.47;79.95
9141;BME280;46330;50.822;7.126;2023-04-02T12:57:27;101448.56;;;8.44;79.18
9141;BME280;46330;50.822;7.126;2023-04-02T12:59:59;101454.63;;;8.28;78.85
9141;BME280;46330;50.822;7.126;2023-04-02T13:02:32;101456.28;;;8.15;81.10
9141;BME280;46330;50.822;7.126;2023-04-02T13:11:15;101468.38;;;8.07;79.71
9141;BME280;46330;50.822;7.126;2023-04-02T13:13:45;101470.03;;;7.91;80.68
9141;BME280;46330;50.822;7.126;2023-04-02T13:16:28;101467.44;;;7.84;80.16
9141;BME280;46330;50.822;7.126;2023-04-02T13:19:19;101483.16;;;8.05;80.23
9141;BME280;46330;50.822;7.126;2023-04-02T13:21:48;101476.88;;;7.68;80.71
9141;BME280;46330;50.822;7.126;2023-04-02T13:24:19;101482.13;;;7.76;80.71
9141;BME280;46330;50.822;7.126;2023-04-02T13:26:48;101487.31;;;7.76;81.19
9141;BME280;46330;50.822;7.126;2023-04-02T13:29:23;101478.78;;;7.99;80.76
9141;BME280;46330;50.822;7.126;2023-04-02T13:31:55;101476.28;;;8.24;79.65
9141;BME280;46330;50.822;7.126;2023-04-02T13:34:24;101482.28;;;8.06;80.08
9141;BME280;46330;50.822;7.126;2023-04-02T13:36:52;101489.16;;;7.90;79.37
9141;BME280;46330;50.822;7.126;2023-04-02T13:39:20;101493.47;;;7.84;81.09
9141;BME280;46330;50.822;7.126;2023-04-02T13:41:50;101497.84;;;7.92;79.67
9141;BME280;46330;50.822;7.126;2023-04-02T13:44:21;101502.34;;;8.24;78.74
9141;BME280;46330;50.822;7.126;2023-04-02T13:46:50;101503.16;;;8.10;79.08
9141;BME280;46330;50.822;7.126;2023-04-02T13:49:20;101499.72;;;8.18;78.52
9141;BME280;46330;50.822;7.126;2023-04-02T13:51:49;101505.91;;;8.39;78.23